Stuart, FL

5:57 PM EDT on October 20, 2014 (GMT -0400)
Palm Beach International | Change Station
CLOSE
Current Station
Airport
Location: West Palm Beach,
Elevation: 20 ft
Nearby Weather Stations

Elev 20 ft 26.68 °N, 80.10 °W | Updated 4 minutes ago

Partly Cloudy
Partly Cloudy
82 °F
Feels Like 84 °F
N
9
Wind Variable Wind from ESE

Today
High -- | Low -- °F
--% Chance of Precip.
Yesterday
High -- | Low -- °F
Precip. -- in
7:23 AM 6:47 PM
Waning Crescent, 9% visible
Pressure 29.93 in
Visibility 10.0 miles
Clouds Few 4500 ft
Mostly Cloudy 7500 ft
Mostly Cloudy 25000 ft
Heat Index 84 °F
Dew Point 65 °F
Humidity 56%
Rainfall 0.00 in
Snow Depth Not available.
UV 0 out of 12
Pollen 4.50 out of 12
Air Quality Not available.
Flu Activity Local Activity
METAR KPBI 202153Z 12008KT 10SM FEW045 BKN075 BKN250 28/18 A2993 RMK AO2 SLP135 T02780183

More Conditions Fewer Conditions

Pressure 29.93 in
Visibility 10.0 miles
Clouds Few 4500 ft
Mostly Cloudy 7500 ft
Mostly Cloudy 25000 ft
Heat Index 84 °F
Dew Point 65 °F
Humidity 56%
Rainfall 0.00 in
Snow Depth Not available.
UV 0 out of 12
Pollen 4.50 out of 12
Air Quality Not available.
Flu Activity Local Activity
METAR KPBI 202153Z 12008KT 10SM FEW045 BKN075 BKN250 28/18 A2993 RMK AO2 SLP135 T02780183

More Conditions Fewer Conditions

10-Day Weather Forecast

Almanac

Astronomy

Oct. 20, 2014 Rise Set
Actual Time 7:23 AM EDT 6:47 PM EDT
Civil Twilight 7:00 AM EDT 7:11 PM EDT
Nautical Twilight 6:32 AM EDT 7:38 PM EDT
Astronomical Twilight 6:05 AM EDT 8:05 PM EDT
Moon 4:27 AM EDT 4:55 PM EDT
Length of Visible Light 12h 11m
Length of Day
11h 23m
Waning Crescent, 9% of the Moon is Illuminated
Today
Waning Crescent
Oct 23
New
Oct 30
First Quarter
Nov 6
Full
Nov 14
Last Quarter

Today's Extremes

State Highs State Lows

Community

WunderPhotos

Upload Photos

1,763,527 photos uploaded!

WunderBlogs® & News

Nearby

Snow Depth

Station Depth Elevation
No new snow has been reported.

Earthquake Activity

City Distance Mag. Time & Date
No recent earthquake activity has been reported nearby.
Minimum magnitude displayed is 2.5.

Coastal Water Temperatures

Place Temperature
Lake Worth, FL 82.9 °F
Trident Pier, FL 81.0 °F
Virginia Key, FL 82.0 °F

Nearby Weather Stations